Time;durP1;ratioP1;P1;durP2;ratioP2;P2;SDS_P1;SDS_P2;PMS_P1;PMS_P2;Temp;Humidity;BMP_temperature;BMP_pressure;BME280_temperature;BME280_humidity;BME280_pressure;Samples;Min_cycle;Max_cycle;Signal;HPM_P1;HPM_P2
2023/06/13 00:00:00;;;;;;;0.00;0.00;;;;;;;18.44;41.89;98191.31;4992265;28;20234;-63
2023/06/13 00:02:28;;;;;;;0.00;0.00;;;;;;;18.31;42.11;98184.28;4997865;28;20314;-63
2023/06/13 00:04:55;;;;;;;0.00;0.00;;;;;;;18.14;43.47;98184.75;4993356;28;20315;-63
2023/06/13 00:07:22;;;;;;;0.00;0.00;;;;;;;17.93;44.89;98188.47;4998047;28;20274;-63
2023/06/13 00:09:48;;;;;;;0.00;0.00;;;;;;;17.80;45.05;98180.63;4997277;28;20250;-63
2023/06/13 00:12:19;;;;;;;0.00;0.00;;;;;;;17.73;42.97;98185.94;4994869;28;20234;-63
2023/06/13 00:14:50;;;;;;;0.00;0.00;;;;;;;17.87;43.39;98184.03;4993579;28;20720;-63
2023/06/13 00:17:17;;;;;;;0.00;0.00;;;;;;;17.91;42.81;98181.81;4992181;28;20241;-63
2023/06/13 00:19:45;;;;;;;0.00;0.00;;;;;;;17.86;43.18;98177.13;4997099;28;20278;-63
2023/06/13 00:22:14;;;;;;;0.00;0.00;;;;;;;17.83;43.71;98181.03;4993424;28;20239;-63
2023/06/13 00:24:40;;;;;;;0.00;0.00;;;;;;;17.87;43.65;98176.13;4993115;28;20242;-64
2023/06/13 00:27:07;;;;;;;0.00;0.00;;;;;;;17.91;43.63;98179.97;4993882;28;20225;-63
2023/06/13 00:29:34;;;;;;;0.00;0.00;;;;;;;17.91;43.38;98169.41;4975538;28;20692;-63
2023/06/13 00:32:02;;;;;;;0.00;0.00;;;;;;;17.85;43.53;98168.41;4974574;28;20845;-63
2023/06/13 00:34:28;;;;;;;0.00;0.00;;;;;;;17.85;43.32;98176.34;4987299;28;20247;-63
2023/06/13 00:36:55;;;;;;;0.00;0.00;;;;;;;17.94;42.84;98162.91;4993045;28;20711;-63
2023/06/13 00:39:22;;;;;;;0.00;0.00;;;;;;;17.90;44.48;98170.41;4977798;28;20232;-63
2023/06/13 00:41:48;;;;;;;0.00;0.00;;;;;;;17.77;44.73;98170.47;4992037;28;20231;-63
2023/06/13 00:44:18;;;;;;;0.00;0.00;;;;;;;17.64;44.85;98166.06;4975638;28;20261;-63
2023/06/13 00:46:46;;;;;;;0.00;0.00;;;;;;;17.54;44.15;98159.38;4997373;28;20241;-63
2023/06/13 00:49:19;;;;;;;0.00;0.00;;;;;;;17.47;45.26;98155.94;4971774;28;20232;-63
2023/06/13 00:51:47;;;;;;;0.00;0.00;;;;;;;17.41;46.33;98165.53;4994053;28;20240;-63
2023/06/13 00:54:18;;;;;;;0.00;0.00;;;;;;;17.31;45.83;98156.41;4990823;28;20238;-63
2023/06/13 00:56:45;;;;;;;0.00;0.00;;;;;;;17.30;46.07;98149.50;4976023;28;20344;-63
2023/06/13 00:59:20;;;;;;;0.00;0.00;;;;;;;17.22;46.33;98153.97;4971720;28;20273;-63
2023/06/13 01:01:47;;;;;;;0.00;0.00;;;;;;;17.03;46.35;98150.34;4993049;28;20237;-63
2023/06/13 01:04:19;;;;;;;2.63;1.80;;;;;;;16.94;46.38;98143.63;4992151;28;20710;-63
2023/06/13 01:06:46;;;;;;;8.27;4.70;;;;;;;16.90;48.16;98145.06;4994266;28;20321;-62
2023/06/13 01:09:18;;;;;;;6.70;4.50;;;;;;;16.87;47.52;98137.56;4974691;28;20702;-63
2023/06/13 01:12:00;;;;;;;9.07;4.80;;;;;;;16.92;47.36;98135.13;4995605;28;20600;-63
2023/06/13 01:14:36;;;;;;;10.47;4.70;;;;;;;16.94;47.19;98139.19;4987190;28;20246;-63
2023/06/13 01:17:10;;;;;;;10.63;5.17;;;;;;;16.96;47.60;98139.78;4974598;28;21153;-63
2023/06/13 01:19:41;;;;;;;7.10;4.67;;;;;;;16.91;47.19;98139.59;4975916;28;20592;-63
2023/06/13 01:22:11;;;;;;;8.33;4.27;;;;;;;16.85;47.02;98132.50;4971285;28;20329;-63
2023/06/13 01:24:46;;;;;;;5.77;4.60;;;;;;;16.84;47.97;98133.50;4998713;28;20228;-63
2023/06/13 01:27:17;;;;;;;6.10;4.43;;;;;;;16.75;48.04;98134.72;4972387;28;20231;-63
2023/06/13 01:29:45;;;;;;;8.57;4.43;;;;;;;16.67;48.29;98120.75;4989889;28;20242;-63
2023/06/13 01:32:12;;;;;;;5.63;4.40;;;;;;;16.51;49.18;98127.19;4970088;28;20248;-63
2023/06/13 01:34:40;;;;;;;7.73;4.40;;;;;;;16.57;48.99;98120.34;4992138;28;20231;-63
2023/06/13 01:37:07;;;;;;;5.07;4.40;;;;;;;16.49;49.38;98128.44;4970737;28;20323;-63
2023/06/13 01:39:34;;;;;;;6.00;4.40;;;;;;;16.42;48.97;98128.44;4975837;28;20239;-63
2023/06/13 01:42:01;;;;;;;6.63;4.83;;;;;;;16.30;49.21;98119.50;4975638;28;20303;-63
2023/06/13 01:44:30;;;;;;;8.60;4.63;;;;;;;16.36;48.04;98116.06;4991568;28;20687;-63
2023/06/13 01:47:05;;;;;;;6.63;3.87;;;;;;;16.55;48.53;98119.72;4971346;28;20298;-63
2023/06/13 01:49:40;;;;;;;5.30;4.57;;;;;;;16.62;48.15;98122.34;4978236;28;20239;-63
2023/06/13 01:52:13;;;;;;;6.63;4.80;;;;;;;16.75;46.96;98121.56;4991696;28;20231;-63
2023/06/13 01:54:49;;;;;;;6.47;4.13;;;;;;;16.69;47.73;98120.53;4975726;28;20232;-63
2023/06/13 01:57:24;;;;;;;5.07;4.20;;;;;;;16.78;47.73;98121.16;4971177;28;20293;-63
2023/06/13 01:59:55;;;;;;;5.87;3.90;;;;;;;16.71;48.16;98125.59;4979556;28;20242;-63
2023/06/13 02:02:23;;;;;;;7.23;4.50;;;;;;;16.73;46.58;98118.31;4971800;28;20702;-63
2023/06/13 02:04:50;;;;;;;8.20;4.40;;;;;;;16.73;46.76;98118.31;4991652;28;20228;-63
2023/06/13 02:07:18;;;;;;;5.17;4.50;;;;;;;17.04;46.35;98122.16;4970496;28;20240;-63
2023/06/13 02:09:44;;;;;;;6.47;3.87;;;;;;;16.96;46.95;98117.88;4994144;28;20325;-63
2023/06/13 02:12:12;;;;;;;5.77;4.30;;;;;;;16.91;47.45;98115.03;4970631;28;20243;-63
2023/06/13 02:14:39;;;;;;;6.93;4.53;;;;;;;16.86;46.77;98113.03;4994052;28;20232;-63
2023/06/13 02:17:07;;;;;;;5.80;4.33;;;;;;;16.73;47.14;98107.78;4971663;28;20239;-63
2023/06/13 02:19:34;;;;;;;6.77;4.30;;;;;;;16.71;47.36;98102.69;4973429;28;20262;-63
2023/06/13 02:22:01;;;;;;;5.77;4.10;;;;;;;16.73;46.70;98102.50;4972446;28;20264;-63
2023/06/13 02:24:27;;;;;;;6.57;4.50;;;;;;;16.81;46.54;98105.72;4994076;28;20231;-63
2023/06/13 02:26:54;;;;;;;5.63;4.53;;;;;;;16.82;47.09;98103.91;4972219;28;20911;-63
2023/06/13 02:29:21;;;;;;;5.30;4.20;;;;;;;16.76;46.97;98110.78;4994805;28;20722;-63
2023/06/13 02:31:47;;;;;;;8.00;4.47;;;;;;;16.74;46.29;98106.75;4975415;28;20240;-63
2023/06/13 02:34:19;;;;;;;7.00;4.77;;;;;;;16.81;46.42;98104.94;4974385;28;20231;-63
2023/06/13 02:36:46;;;;;;;7.30;4.70;;;;;;;16.86;46.33;98110.41;4983406;28;20232;-63
2023/06/13 02:39:18;;;;;;;5.20;4.00;;;;;;;16.75;47.48;98108.38;4991688;28;20263;-63
2023/06/13 02:41:44;;;;;;;6.30;4.60;;;;;;;16.78;46.85;98106.13;4973698;28;20232;-63
2023/06/13 02:44:36;;;;;;;6.63;4.27;;;;;;;16.76;46.97;98102.09;4990387;28;20305;-63
2023/06/13 02:47:02;;;;;;;6.03;4.10;;;;;;;16.68;46.52;98101.28;4990244;28;20293;-64
2023/06/13 02:49:30;;;;;;;5.77;4.40;;;;;;;16.59;47.35;98105.13;4992343;28;20285;-63
2023/06/13 02:51:57;;;;;;;8.23;4.10;;;;;;;16.50;47.79;98103.72;4974289;28;20257;-62
2023/06/13 02:54:24;;;;;;;7.37;4.30;;;;;;;16.40;48.76;98111.19;4978932;28;20221;-63
2023/06/13 02:56:50;;;;;;;5.37;4.10;;;;;;;16.25;49.13;98112.19;4977215;28;20304;-63
2023/06/13 02:59:19;;;;;;;6.77;4.60;;;;;;;16.21;48.84;98106.53;4997065;28;20266;-63
2023/06/13 03:01:46;;;;;;;6.60;4.37;;;;;;;16.23;49.30;98106.31;4977361;28;20235;-63
2023/06/13 03:04:18;;;;;;;6.73;4.30;;;;;;;16.07;49.65;98107.50;4976524;28;20714;-63
2023/06/13 03:06:46;;;;;;;6.27;3.70;;;;;;;15.95;50.00;98109.88;4977874;28;20622;-63
2023/06/13 03:09:18;;;;;;;8.50;4.33;;;;;;;15.98;50.22;98106.06;4974719;28;20250;-63
2023/06/13 03:11:46;;;;;;;6.83;4.40;;;;;;;15.91;50.31;98111.28;4994948;28;20235;-63
2023/06/13 03:14:18;;;;;;;5.90;4.17;;;;;;;15.74;50.91;98106.38;4975366;28;20310;-63
2023/06/13 03:16:45;;;;;;;8.77;4.30;;;;;;;15.70;51.18;98110.41;4994711;28;20296;-63
2023/06/13 03:19:17;;;;;;;5.47;3.93;;;;;;;15.60;51.05;98113.38;4977354;28;20234;-63
2023/06/13 03:21:44;;;;;;;6.53;4.40;;;;;;;15.63;51.90;98123.53;4976826;28;20256;-63
2023/06/13 03:24:20;;;;;;;4.67;4.13;;;;;;;15.59;51.24;98124.13;4991896;28;20227;-63
2023/06/13 03:26:47;;;;;;;7.30;3.70;;;;;;;15.50;51.50;98128.72;4982067;28;20231;-63
2023/06/13 03:29:18;;;;;;;6.20;4.10;;;;;;;15.47;51.77;98143.09;4977096;28;20230;-63
2023/06/13 03:31:44;;;;;;;6.10;3.57;;;;;;;15.38;52.37;98138.16;5241222;23;20279;-64
2023/06/13 03:34:39;;;;;;;6.37;4.17;;;;;;;15.25;53.11;98139.72;5003907;28;20705;-63
2023/06/13 03:37:07;;;;;;;7.40;4.13;;;;;;;15.13;52.27;98139.44;4986464;28;20229;-63
2023/06/13 03:39:37;;;;;;;6.87;3.97;;;;;;;15.11;53.43;98149.31;4990225;28;20230;-63
2023/06/13 03:42:04;;;;;;;6.03;4.03;;;;;;;15.14;53.69;98148.94;4977194;28;20312;-63
2023/06/13 03:44:31;;;;;;;5.17;3.67;;;;;;;15.08;53.64;98154.16;4959185;28;20717;-63
2023/06/13 03:46:58;;;;;;;11.37;4.47;;;;;;;15.07;54.28;98155.19;4986819;28;20227;-63
2023/06/13 03:49:25;;;;;;;7.90;4.00;;;;;;;15.03;54.19;98150.31;4973540;28;20230;-63
2023/06/13 03:51:52;;;;;;;5.17;3.90;;;;;;;15.07;54.40;98155.19;4970066;28;20594;-63
2023/06/13 03:54:20;;;;;;;5.67;3.70;;;;;;;15.06;54.85;98143.84;4959990;28;20248;-63
2023/06/13 03:56:48;;;;;;;5.23;3.57;;;;;;;15.08;53.10;98143.66;4992139;28;20230;-63
2023/06/13 03:59:18;;;;;;;4.53;3.90;;;;;;;15.12;53.18;98148.31;4974499;28;20229;-63
2023/06/13 04:01:44;;;;;;;5.97;3.40;;;;;;;15.15;53.45;98149.78;4976653;28;20238;-63
2023/06/13 04:04:18;;;;;;;5.93;4.33;;;;;;;15.17;54.26;98151.19;4972661;28;20240;-63
2023/06/13 04:06:47;;;;;;;4.53;3.70;;;;;;;15.18;54.33;98157.28;4974797;28;20234;-63
2023/06/13 04:09:18;;;;;;;8.07;3.87;;;;;;;15.17;53.93;98156.44;4970822;28;20321;-63
2023/06/13 04:11:45;;;;;;;7.27;4.20;;;;;;;15.27;54.66;98155.28;4990851;28;20248;-63
2023/06/13 04:14:19;;;;;;;9.20;4.00;;;;;;;15.26;54.54;98158.94;4973023;28;20229;-63
2023/06/13 04:16:53;;;;;;;4.90;4.17;;;;;;;15.20;54.45;98160.53;4972925;28;20226;-63
2023/06/13 04:19:20;;;;;;;5.37;3.63;;;;;;;15.23;54.35;98167.19;4989673;28;20751;-63
2023/06/13 04:21:47;;;;;;;9.10;4.10;;;;;;;15.25;54.75;98170.44;4992708;28;20229;-63
2023/06/13 04:24:17;;;;;;;7.57;4.00;;;;;;;15.26;54.53;98172.06;4984247;28;20226;-63
2023/06/13 04:26:45;;;;;;;8.93;3.67;;;;;;;15.32;54.37;98177.41;4974859;28;20238;-64
2023/06/13 04:29:20;;;;;;;6.87;4.33;;;;;;;15.28;54.61;98184.03;4970874;28;20689;-63
2023/06/13 04:31:47;;;;;;;6.03;4.00;;;;;;;15.27;55.14;98179.78;4968386;28;20225;-63
2023/06/13 04:34:20;;;;;;;7.77;4.73;;;;;;;15.22;56.05;98190.06;4976102;28;20237;-63
2023/06/13 04:36:47;;;;;;;7.67;3.70;;;;;;;15.29;54.58;98195.34;4983094;28;20234;-63
2023/06/13 04:39:18;;;;;;;9.63;4.00;;;;;;;15.34;53.55;98204.31;4988886;28;20238;-63
2023/06/13 04:41:48;;;;;;;10.80;4.40;;;;;;;15.41;54.75;98214.03;4976847;28;20300;-63
2023/06/13 04:44:19;;;;;;;7.43;3.70;;;;;;;15.39;53.29;98214.25;4969261;28;20224;-63
2023/06/13 04:46:47;;;;;;;6.50;3.70;;;;;;;15.45;55.44;98215.28;4972993;28;20237;-63
2023/06/13 04:49:17;;;;;;;6.53;4.47;;;;;;;15.36;55.70;98222.50;4968889;28;20689;-63
2023/06/13 04:51:44;;;;;;;7.93;3.60;;;;;;;15.45;54.41;98217.91;4989242;28;20259;-63
2023/06/13 04:54:19;;;;;;;4.63;3.60;;;;;;;15.47;54.45;98218.53;4986097;28;20260;-63
2023/06/13 04:56:45;;;;;;;7.27;3.80;;;;;;;15.47;55.18;98223.78;4989666;28;20240;-63
2023/06/13 04:59:20;;;;;;;6.00;3.67;;;;;;;15.63;52.09;98215.59;4986859;28;20245;-63
2023/06/13 05:01:47;;;;;;;8.27;3.47;;;;;;;15.63;54.43;98209.53;4989830;28;20321;-63
2023/06/13 05:04:18;;;;;;;5.23;3.63;;;;;;;15.66;54.01;98209.16;4987781;28;20721;-63
2023/06/13 05:06:44;;;;;;;5.57;3.43;;;;;;;15.72;53.59;98218.06;4989470;28;20713;-63
2023/06/13 05:09:16;;;;;;;7.60;4.07;;;;;;;15.88;51.67;98211.72;4985799;28;20222;-63
2023/06/13 05:11:43;;;;;;;5.37;3.73;;;;;;;16.06;50.09;98217.25;4984078;28;20321;-62
2023/06/13 05:14:10;;;;;;;7.53;3.53;;;;;;;16.13;49.43;98222.56;4989730;28;20292;-63
2023/06/13 05:16:38;;;;;;;4.47;3.47;;;;;;;16.25;50.96;98219.34;4985549;28;20290;-63
2023/06/13 05:19:05;;;;;;;9.37;3.87;;;;;;;16.31;48.62;98219.38;4980747;28;20226;-63
2023/06/13 05:21:31;;;;;;;5.43;3.20;;;;;;;16.38;49.53;98214.13;4989838;28;20235;-63
2023/06/13 05:23:58;;;;;;;5.07;3.57;;;;;;;16.47;49.41;98231.34;4988880;28;20684;-63
2023/06/13 05:26:25;;;;;;;4.60;3.67;;;;;;;16.70;45.92;98216.22;4988433;28;20225;-63
2023/06/13 05:28:52;;;;;;;4.97;3.60;;;;;;;16.63;48.03;98237.28;4988391;28;20242;-63
2023/06/13 05:31:19;;;;;;;4.50;3.50;;;;;;;16.58;49.24;98229.16;4987204;28;20243;-63
2023/06/13 05:33:47;;;;;;;6.27;3.63;;;;;;;16.67;49.68;98228.78;4980106;28;20238;-63
2023/06/13 05:36:13;;;;;;;6.63;3.70;;;;;;;16.55;49.82;98229.56;4956156;28;20231;-60
2023/06/13 05:38:40;;;;;;;6.77;3.47;;;;;;;16.57;50.35;98228.34;4967575;28;20235;-63
2023/06/13 05:41:07;;;;;;;6.07;3.27;;;;;;;16.88;52.04;98227.00;4982807;28;20297;-63
2023/06/13 05:43:33;;;;;;;5.67;3.90;;;;;;;17.21;50.43;98223.56;4989221;28;20239;-64
2023/06/13 05:46:00;;;;;;;5.87;3.07;;;;;;;17.37;50.08;98224.16;4985697;28;20231;-64
2023/06/13 05:48:29;;;;;;;5.37;3.70;;;;;;;17.50;49.72;98228.59;4987809;28;20324;-64
2023/06/13 05:50:57;;;;;;;7.57;3.20;;;;;;;17.52;49.91;98224.75;4986196;28;20334;-64
2023/06/13 05:53:23;;;;;;;7.83;3.70;;;;;;;17.45;47.53;98215.25;4984404;28;20235;-66
2023/06/13 05:55:50;;;;;;;8.37;3.50;;;;;;;17.65;45.32;98217.81;4989283;28;20294;-59
2023/06/13 05:58:16;;;;;;;5.30;3.67;;;;;;;17.77;44.55;98224.09;4985393;28;20852;-62
2023/06/13 06:00:45;;;;;;;5.50;3.63;;;;;;;17.85;42.77;98221.22;4984763;28;20250;-57
2023/06/13 06:03:12;;;;;;;5.73;3.37;;;;;;;18.07;43.72;98230.72;4986702;28;20248;-61
2023/06/13 06:05:38;;;;;;;6.07;3.80;;;;;;;18.26;41.55;98232.47;4988843;28;20227;-62
2023/06/13 06:08:06;;;;;;;5.43;2.83;;;;;;;18.34;45.47;98244.63;4986960;28;20250;-61
2023/06/13 06:10:33;;;;;;;3.97;3.13;;;;;;;18.52;44.44;98237.81;4984977;28;20243;-66
2023/06/13 06:12:59;;;;;;;4.53;3.33;;;;;;;18.62;43.81;98234.69;4982936;28;20232;-59
2023/06/13 06:15:26;;;;;;;6.77;3.50;;;;;;;18.68;45.15;98239.97;4973673;28;20298;-63
2023/06/13 06:17:52;;;;;;;4.47;3.80;;;;;;;18.81;43.95;98244.34;4981043;28;20228;-63
2023/06/13 06:20:19;;;;;;;8.17;3.70;;;;;;;18.88;46.39;98239.81;4988474;28;20583;-62
2023/06/13 06:22:46;;;;;;;6.57;3.70;;;;;;;18.95;46.27;98239.78;4985422;28;20233;-63
2023/06/13 06:25:19;;;;;;;7.33;3.63;;;;;;;19.11;44.95;98235.81;4971295;28;20325;-60
2023/06/13 06:27:47;;;;;;;8.23;3.53;;;;;;;19.22;45.78;98230.84;4983897;28;20233;-61
2023/06/13 06:30:14;;;;;;;5.00;3.40;;;;;;;19.33;43.24;98233.59;4990094;28;20245;-61
2023/06/13 06:32:42;;;;;;;5.03;3.47;;;;;;;19.33;43.84;98233.59;4994931;28;20795;-63
2023/06/13 06:35:09;;;;;;;6.23;3.40;;;;;;;19.37;37.19;98219.91;4987841;28;20636;-63
2023/06/13 06:37:36;;;;;;;4.87;3.30;;;;;;;19.42;38.48;98223.56;4991287;28;20226;-64
2023/06/13 06:40:03;;;;;;;3.57;3.27;;;;;;;19.60;37.80;98220.09;4987200;28;20230;-66
2023/06/13 06:42:31;;;;;;;7.37;3.10;;;;;;;19.68;36.54;98215.56;4991552;28;20305;-62
2023/06/13 06:45:09;;;;;;;5.90;4.17;;;;;;;19.64;38.63;98223.09;4974195;28;20285;-62
2023/06/13 06:47:36;;;;;;;6.60;3.57;;;;;;;19.74;36.07;98217.31;4977135;28;20302;-63
2023/06/13 06:50:02;;;;;;;6.07;3.27;;;;;;;19.88;37.49;98218.78;4984506;28;20284;-67
2023/06/13 06:52:29;;;;;;;4.93;3.30;;;;;;;19.98;39.33;98220.16;4981248;28;20693;-66
2023/06/13 06:54:56;;;;;;;7.33;3.67;;;;;;;20.04;35.86;98209.44;4994030;28;21204;-66
2023/06/13 06:57:22;;;;;;;5.77;3.00;;;;;;;20.17;36.45;98224.38;4976970;28;20708;-65
2023/06/13 06:59:50;;;;;;;3.73;3.27;;;;;;;20.33;35.67;98216.84;4995086;28;20619;-65
2023/06/13 07:02:17;;;;;;;5.70;3.33;;;;;;;20.37;37.44;98217.22;4986683;28;20235;-65
2023/06/13 07:04:45;;;;;;;7.20;3.40;;;;;;;20.37;36.19;98215.34;4990080;28;20236;-66
2023/06/13 07:07:12;;;;;;;10.27;3.30;;;;;;;20.51;36.42;98218.66;4989801;28;20286;-66
2023/06/13 07:09:39;;;;;;;3.87;3.10;;;;;;;20.65;38.13;98227.22;4990202;28;20223;-66
2023/06/13 07:12:06;;;;;;;6.03;3.30;;;;;;;20.73;34.37;98224.22;4985334;28;20267;-67
2023/06/13 07:14:33;;;;;;;9.43;3.10;;;;;;;20.65;34.44;98212.13;4990792;28;20711;-66
2023/06/13 07:17:01;;;;;;;4.50;3.07;;;;;;;20.73;34.48;98215.44;4988532;28;20308;-66
2023/06/13 07:19:28;;;;;;;6.17;3.17;;;;;;;20.64;33.69;98217.63;4992713;28;20226;-64
2023/06/13 07:21:55;;;;;;;5.47;3.03;;;;;;;20.25;33.55;98217.97;4989550;28;20244;-65
2023/06/13 07:24:22;;;;;;;5.37;2.83;;;;;;;20.45;33.62;98225.63;4987670;28;20238;-65
2023/06/13 07:26:48;;;;;;;5.10;3.33;;;;;;;20.59;33.09;98214.84;4978640;28;20291;-66
2023/06/13 07:29:18;;;;;;;10.13;3.30;;;;;;;20.74;31.61;98209.13;4992349;28;20316;-63
2023/06/13 07:31:44;;;;;;;3.60;2.83;;;;;;;20.77;33.05;98216.63;4989498;28;20239;-62
2023/06/13 07:34:37;;;;;;;4.27;2.87;;;;;;;20.81;31.63;98215.16;4991177;28;20241;-63
2023/06/13 07:37:04;;;;;;;3.87;2.90;;;;;;;20.72;30.86;98209.34;4991947;28;20725;-56
2023/06/13 07:39:30;;;;;;;6.80;3.20;;;;;;;20.64;31.41;98212.34;4990561;28;20294;-62
2023/06/13 07:41:57;;;;;;;3.47;2.70;;;;;;;20.69;32.66;98195.72;4988439;28;20242;-63
2023/06/13 07:44:24;;;;;;;7.00;3.07;;;;;;;20.88;32.50;98201.81;4987336;28;20707;-64
2023/06/13 07:46:50;;;;;;;6.63;3.30;;;;;;;21.07;33.34;98207.81;4989136;28;20669;-62
2023/06/13 07:49:18;;;;;;;6.20;2.73;;;;;;;21.20;31.16;98194.31;4986400;28;20231;-64
2023/06/13 07:51:46;;;;;;;4.97;3.20;;;;;;;21.36;31.93;98203.44;4994059;28;20231;-64
2023/06/13 07:54:18;;;;;;;6.90;2.93;;;;;;;21.43;29.36;98192.72;4987584;28;20234;-64
2023/06/13 07:56:47;;;;;;;6.00;2.97;;;;;;;21.32;29.94;98189.00;4989306;28;20235;-64
2023/06/13 07:59:18;;;;;;;3.20;2.50;;;;;;;21.45;30.57;98187.97;4988801;28;20311;-62
2023/06/13 08:01:44;;;;;;;3.77;2.80;;;;;;;21.54;31.60;98177.78;4990801;28;20235;-64
2023/06/13 08:04:18;;;;;;;3.83;3.03;;;;;;;21.66;29.48;98181.25;4988330;28;20253;-64
2023/06/13 08:06:45;;;;;;;4.80;2.87;;;;;;;21.47;29.02;98177.09;4971638;28;20238;-64
2023/06/13 08:09:18;;;;;;;6.43;3.00;;;;;;;21.37;28.86;98173.19;4984478;28;21190;-64
2023/06/13 08:11:45;;;;;;;4.03;2.50;;;;;;;21.46;29.44;98178.16;4992053;28;20235;-64
2023/06/13 08:14:18;;;;;;;4.90;2.70;;;;;;;21.42;28.60;98172.50;4986633;28;20308;-64
2023/06/13 08:16:47;;;;;;;3.90;3.07;;;;;;;21.31;29.54;98181.28;4974950;28;20232;-63
2023/06/13 08:19:18;;;;;;;5.93;3.37;;;;;;;21.34;28.61;98183.47;4985749;28;20710;-63
2023/06/13 08:21:47;;;;;;;6.03;2.83;;;;;;;21.29;29.34;98180.72;4987709;28;20245;-63
2023/06/13 08:24:18;;;;;;;4.40;3.23;;;;;;;21.26;28.40;98176.66;4987403;28;20705;-63
2023/06/13 08:26:44;;;;;;;4.50;3.30;;;;;;;21.36;29.11;98176.88;4990571;28;20256;-63
2023/06/13 08:29:36;;;;;;;4.97;3.03;;;;;;;21.53;27.97;98184.16;4991623;28;20238;-61
2023/06/13 08:32:03;;;;;;;3.97;2.60;;;;;;;21.59;28.13;98175.25;4987575;28;20579;-61
2023/06/13 08:34:30;;;;;;;10.27;3.67;;;;;;;21.55;29.79;98175.97;4971085;28;20318;-61
2023/06/13 08:36:58;;;;;;;5.63;3.00;;;;;;;21.63;29.03;98179.06;4991821;28;20257;-61
2023/06/13 08:39:24;;;;;;;3.67;2.77;;;;;;;21.58;27.87;98173.63;4991956;28;20249;-62
2023/06/13 08:41:53;;;;;;;6.20;3.13;;;;;;;21.47;28.18;98161.19;4990401;28;20236;-61
2023/06/13 08:44:21;;;;;;;10.13;2.83;;;;;;;21.49;28.84;98167.88;4984521;28;20228;-61
2023/06/13 08:46:48;;;;;;;4.70;3.13;;;;;;;21.48;28.01;98168.09;4992114;28;20573;-62
2023/06/13 08:49:18;;;;;;;4.17;3.30;;;;;;;21.67;28.70;98166.94;4981999;28;20246;-62
2023/06/13 08:51:47;;;;;;;3.63;2.80;;;;;;;21.76;28.65;98169.25;4990958;28;20229;-62
2023/06/13 08:54:20;;;;;;;5.38;3.00;;;;;;;21.87;28.52;98163.09;4988778;28;20531;-62
2023/06/13 08:56:49;;;;;;;8.13;2.90;;;;;;;21.96;28.97;98159.00;4989590;28;20254;-62
2023/06/13 08:59:20;;;;;;;6.10;3.07;;;;;;;22.00;28.61;98158.53;4982414;28;20222;-62
2023/06/13 09:01:49;;;;;;;5.53;2.60;;;;;;;21.96;28.52;98159.00;4987923;28;20236;-62
2023/06/13 09:04:18;;;;;;;6.60;2.80;;;;;;;22.15;27.52;98150.03;4949869;28;20234;-63
2023/06/13 09:06:46;;;;;;;5.00;3.33;;;;;;;22.08;27.97;98156.28;4993911;28;20247;-62
2023/06/13 09:09:20;;;;;;;4.10;2.90;;;;;;;22.25;28.61;98148.38;4987431;28;20280;-61
2023/06/13 09:11:49;;;;;;;4.30;2.90;;;;;;;22.35;27.94;98149.56;4989191;28;20238;-61
2023/06/13 09:14:18;;;;;;;7.47;3.13;;;;;;;22.44;27.11;98147.34;4956709;28;20658;-59
2023/06/13 09:16:45;;;;;;;7.50;3.20;;;;;;;22.48;27.60;98153.84;4987829;28;20360;-59
2023/06/13 09:19:37;;;;;;;5.53;3.00;;;;;;;22.40;25.59;98147.00;4987956;28;20717;-59
2023/06/13 09:22:04;;;;;;;4.17;3.20;;;;;;;22.49;25.65;98145.59;4987351;28;20237;-59
2023/06/13 09:24:33;;;;;;;5.87;3.10;;;;;;;22.68;25.31;98153.34;4983846;28;20299;-60
2023/06/13 09:27:02;;;;;;;4.23;2.70;;;;;;;22.72;25.33;98159.00;4990479;28;20285;-60
2023/06/13 09:29:33;;;;;;;5.70;3.10;;;;;;;22.74;25.40;98149.72;4987697;28;20263;-59
2023/06/13 09:32:00;;;;;;;18.90;3.77;;;;;;;22.82;24.80;98149.31;4990641;28;20784;-60
2023/06/13 09:34:28;;;;;;;4.67;3.07;;;;;;;22.77;24.12;98145.78;4988685;28;20713;-60
2023/06/13 09:36:57;;;;;;;5.63;3.53;;;;;;;22.78;24.74;98155.38;4988583;28;20229;-60
2023/06/13 09:39:24;;;;;;;7.43;3.00;;;;;;;22.82;23.67;98145.84;4986107;28;20293;-60
2023/06/13 09:41:55;;;;;;;6.23;3.07;;;;;;;23.03;25.51;98148.81;4985862;28;20237;-60
2023/06/13 09:44:23;;;;;;;5.73;3.20;;;;;;;23.24;25.51;98142.75;4990387;28;20324;-60
2023/06/13 09:46:50;;;;;;;5.30;3.13;;;;;;;23.39;24.84;98147.47;4991650;28;20318;-59
2023/06/13 09:49:18;;;;;;;5.27;3.30;;;;;;;23.22;25.42;98136.84;4984131;28;20332;-60
2023/06/13 09:51:45;;;;;;;8.10;2.60;;;;;;;23.15;25.10;98139.69;4986405;28;20303;-59
2023/06/13 09:54:18;;;;;;;6.93;2.97;;;;;;;23.20;24.82;98143.47;4989939;28;20678;-59
2023/06/13 09:56:45;;;;;;;3.87;3.17;;;;;;;23.27;23.61;98130.81;4990957;28;20685;-60
2023/06/13 09:59:19;;;;;;;6.30;3.27;;;;;;;23.34;23.48;98133.31;4990913;28;20234;-60
2023/06/13 10:01:47;;;;;;;5.73;3.30;;;;;;;23.36;22.46;98126.66;4990123;28;20247;-60
2023/06/13 10:04:18;;;;;;;4.30;2.93;;;;;;;23.35;23.10;98129.59;4984385;28;20322;-60
2023/06/13 10:06:44;;;;;;;5.23;3.33;;;;;;;23.53;23.52;98134.63;4968377;28;20236;-60
2023/06/13 10:09:36;;;;;;;5.20;3.13;;;;;;;23.67;23.72;98137.69;4985509;28;20626;-60
2023/06/13 10:12:07;;;;;;;7.07;2.80;;;;;;;23.83;24.69;98130.69;4990765;28;20235;-60
2023/06/13 10:14:41;;;;;;;4.97;3.30;;;;;;;23.76;23.21;98124.75;4982770;28;20239;-60
2023/06/13 10:17:12;;;;;;;6.40;2.90;;;;;;;23.64;22.84;98132.06;4973356;28;20689;-60
2023/06/13 10:19:40;;;;;;;6.87;3.33;;;;;;;23.66;22.74;98129.97;4985002;28;20644;-60
2023/06/13 10:22:09;;;;;;;6.53;2.87;;;;;;;23.67;22.80;98129.69;4987807;28;20255;-60
2023/06/13 10:24:36;;;;;;;6.90;3.30;;;;;;;23.89;22.70;98127.00;4975061;28;20297;-60
2023/06/13 10:27:04;;;;;;;5.33;3.17;;;;;;;24.09;23.04;98122.19;4968931;28;20229;-60
2023/06/13 10:30:16;;;;;;;4.73;3.53;;;;;;;24.10;22.80;98129.13;4984954;28;20245;-60
2023/06/13 10:33:31;;;;;;;4.53;3.10;;;;;;;24.30;22.78;98137.31;4985818;28;20271;-60
2023/06/13 10:36:14;;;;;;;5.30;3.50;;;;;;;24.22;21.04;98139.63;4975148;28;20663;-60
2023/06/13 10:39:14;;;;;;;5.20;3.30;;;;;;;24.21;22.24;98135.34;4983707;28;20232;-60
2023/06/13 10:41:54;;;;;;;5.80;3.47;;;;;;;24.18;22.35;98134.81;4984903;28;20229;-60
2023/06/13 10:44:27;;;;;;;4.70;3.17;;;;;;;24.39;22.61;98140.31;4986905;28;20282;-60
2023/06/13 10:46:54;;;;;;;4.77;3.23;;;;;;;24.52;23.94;98132.97;4986454;28;20248;-60
2023/06/13 10:49:22;;;;;;;5.93;3.80;;;;;;;24.61;22.92;98121.56;4982008;28;20234;-60
2023/06/13 10:51:49;;;;;;;4.67;3.27;;;;;;;24.59;24.62;98121.00;4987582;28;20273;-60
2023/06/13 10:54:18;;;;;;;9.17;3.23;;;;;;;24.60;23.75;98122.63;4986232;28;20221;-60
2023/06/13 10:56:45;;;;;;;6.07;3.10;;;;;;;24.45;24.37;98131.31;4989231;28;20263;-60
2023/06/13 10:59:18;;;;;;;5.10;3.10;;;;;;;24.14;20.82;98132.91;4986664;28;20237;-59
2023/06/13 11:01:45;;;;;;;4.33;3.37;;;;;;;24.45;21.74;98122.50;4988100;28;20243;-60
2023/06/13 11:04:20;;;;;;;5.20;3.73;;;;;;;24.38;21.30;98136.06;4987802;28;20217;-60
2023/06/13 11:06:52;;;;;;;5.17;3.30;;;;;;;24.56;21.85;98115.38;4987490;28;20283;-60
2023/06/13 11:09:21;;;;;;;7.83;3.33;;;;;;;24.74;22.73;98109.69;4955879;28;20388;-61
2023/06/13 11:11:50;;;;;;;7.93;3.40;;;;;;;24.62;22.80;98123.16;4989384;28;20571;-61
2023/06/13 11:14:21;;;;;;;4.30;3.47;;;;;;;24.46;21.86;98098.25;4989868;28;20224;-61
2023/06/13 11:16:47;;;;;;;5.83;3.80;;;;;;;24.70;21.87;98107.75;4993440;28;20225;-60
2023/06/13 11:19:22;;;;;;;5.43;3.40;;;;;;;24.54;21.30;98109.50;4990318;28;20237;-60
2023/06/13 11:22:06;;;;;;;7.20;3.60;;;;;;;24.73;22.82;98107.25;4990796;28;20283;-60
2023/06/13 11:24:34;;;;;;;4.33;3.50;;;;;;;24.70;22.60;98113.06;4986371;28;20233;-60
2023/06/13 11:27:03;;;;;;;8.13;3.47;;;;;;;24.80;22.19;98099.03;4992367;28;20234;-60
2023/06/13 11:29:32;;;;;;;9.03;3.97;;;;;;;24.83;22.06;98102.00;4986861;28;20240;-59
2023/06/13 11:32:02;;;;;;;4.97;3.50;;;;;;;24.59;21.71;98088.19;4989977;28;20320;-60
2023/06/13 11:34:32;;;;;;;4.80;3.53;;;;;;;24.66;21.30;98110.13;4990049;28;20324;-60
2023/06/13 11:37:05;;;;;;;8.13;3.60;;;;;;;24.88;21.73;98111.91;4994791;28;20303;-60
2023/06/13 11:39:39;;;;;;;6.33;3.80;;;;;;;25.05;22.15;98104.50;4987768;28;20320;-60
2023/06/13 11:42:06;;;;;;;5.27;3.30;;;;;;;25.34;23.97;98104.13;4991337;28;20246;-60
2023/06/13 11:44:33;;;;;;;7.60;3.37;;;;;;;25.35;22.11;98094.25;4990200;28;20231;-60